Time;durP1;ratioP1;P1;durP2;ratioP2;P2;SDS_P1;SDS_P2;PMS_P1;PMS_P2;Temp;Humidity;BMP_temperature;BMP_pressure;BME280_temperature;BME280_humidity;BME280_pressure;Samples;Min_cycle;Max_cycle;Signal;HPM_P1;HPM_P2
2023/08/17 00:02:13;;;;;;;8.23;3.92;;;16.70;99.90;;;;;;5075516;28;20419;-69
2023/08/17 00:04:39;;;;;;;9.80;4.13;;;16.50;99.90;;;;;;5075402;28;20085;-69
2023/08/17 00:07:05;;;;;;;12.95;4.82;;;16.70;99.90;;;;;;5057118;28;20047;-69
2023/08/17 00:09:31;;;;;;;13.30;4.63;;;16.60;99.90;;;;;;5075299;28;20040;-69
2023/08/17 00:11:57;;;;;;;11.20;4.38;;;16.60;99.90;;;;;;5075377;28;20113;-69
2023/08/17 00:14:23;;;;;;;11.77;4.70;;;16.60;99.90;;;;;;5057211;28;20512;-69
2023/08/17 00:16:52;;;;;;;7.93;4.97;;;16.80;99.90;;;;;;5074998;28;20036;-69
2023/08/17 00:19:17;;;;;;;9.00;3.45;;;16.70;99.90;;;;;;5074833;28;20151;-69
2023/08/17 00:21:45;;;;;;;10.95;3.65;;;16.70;99.90;;;;;;5074961;28;20186;-69
2023/08/17 00:24:11;;;;;;;6.05;3.30;;;16.60;99.90;;;;;;5074893;28;20628;-69
2023/08/17 00:26:37;;;;;;;9.88;4.03;;;16.50;99.90;;;;;;5074684;28;20688;-69
2023/08/17 00:29:03;;;;;;;9.25;3.88;;;16.50;99.90;;;;;;5074829;28;20071;-69
2023/08/17 00:31:28;;;;;;;11.52;4.80;;;16.60;99.90;;;;;;5074841;28;20036;-69
2023/08/17 00:33:54;;;;;;;9.43;4.22;;;16.50;99.90;;;;;;5074796;28;20094;-70
2023/08/17 00:36:20;;;;;;;9.68;3.83;;;16.70;99.90;;;;;;5074375;28;20411;-69
2023/08/17 00:38:45;;;;;;;7.38;3.60;;;16.50;99.90;;;;;;5056390;28;20040;-69
2023/08/17 00:41:11;;;;;;;10.05;3.90;;;16.60;99.90;;;;;;5056986;28;20123;-69
2023/08/17 00:43:37;;;;;;;6.95;2.70;;;16.60;99.90;;;;;;5040079;28;20584;-69
2023/08/17 00:46:02;;;;;;;7.82;2.72;;;16.70;99.90;;;;;;5074561;28;20064;-69
2023/08/17 00:48:29;;;;;;;5.18;2.33;;;16.70;99.90;;;;;;5074301;28;20111;-69
2023/08/17 00:50:57;;;;;;;8.70;3.20;;;16.50;99.90;;;;;;5074438;28;20122;-69
2023/08/17 00:53:25;;;;;;;11.50;3.28;;;16.50;99.90;;;;;;5074557;28;20141;-69
2023/08/17 00:55:51;;;;;;;6.85;3.28;;;16.50;99.90;;;;;;5074306;28;20048;-69
2023/08/17 00:58:17;;;;;;;12.02;3.88;;;16.70;99.90;;;;;;5056146;28;20132;-69
2023/08/17 01:00:42;;;;;;;13.43;4.22;;;16.60;99.90;;;;;;5072895;28;20115;-69
2023/08/17 01:03:08;;;;;;;10.30;4.07;;;16.50;99.90;;;;;;5074301;28;20047;-69
2023/08/17 01:05:34;;;;;;;9.95;4.43;;;16.70;99.90;;;;;;5073961;28;20381;-69
2023/08/17 01:07:59;;;;;;;11.57;4.53;;;16.60;99.90;;;;;;5055891;28;20041;-69
2023/08/17 01:10:45;;;;;;;9.90;4.47;;;16.50;99.90;;;;;;5056210;28;20388;-69
2023/08/17 01:13:22;;;;;;;10.25;3.20;;;16.40;99.90;;;;;;5074104;28;20522;-69
2023/08/17 01:15:57;;;;;;;11.98;3.88;;;16.70;99.90;;;;;;5073911;28;20052;-69
2023/08/17 01:18:30;;;;;;;11.95;3.78;;;16.50;99.90;;;;;;5073937;28;20040;-70
2023/08/17 01:20:57;;;;;;;8.00;3.05;;;16.50;99.90;;;;;;5074122;28;20087;-69
2023/08/17 01:23:22;;;;;;;10.38;4.38;;;16.60;99.90;;;;;;5056155;28;20036;-69
2023/08/17 01:25:48;;;;;;;10.90;4.35;;;16.40;99.90;;;;;;5073688;28;20163;-69
2023/08/17 01:28:14;;;;;;;7.53;3.45;;;16.30;99.90;;;;;;5073430;28;20047;-69
2023/08/17 01:31:05;;;;;;;6.97;2.78;;;16.30;99.90;;;;;;5073694;28;20044;-70
2023/08/17 01:33:39;;;;;;;5.30;2.40;;;16.50;99.90;;;;;;5073864;28;20051;-69
2023/08/17 01:36:17;;;;;;;8.23;2.28;;;16.30;99.90;;;;;;5073374;28;20040;-69
2023/08/17 01:38:44;;;;;;;4.85;2.30;;;16.20;99.90;;;;;;5055202;28;20044;-69
2023/08/17 01:41:15;;;;;;;5.57;2.50;;;16.20;99.90;;;;;;5072573;28;20045;-69
2023/08/17 01:43:45;;;;;;;6.28;2.35;;;16.40;99.90;;;;;;5055826;28;20040;-69
2023/08/17 01:46:17;;;;;;;4.95;2.17;;;16.30;99.90;;;;;;5073504;28;20048;-69
2023/08/17 01:48:43;;;;;;;6.45;3.13;;;16.10;99.90;;;;;;5035613;28;20057;-69
2023/08/17 01:51:10;;;;;;;9.32;2.97;;;16.10;99.90;;;;;;5053346;28;20123;-69
2023/08/17 01:53:36;;;;;;;8.88;3.28;;;16.30;99.90;;;;;;5053271;28;20083;-68
2023/08/17 01:56:02;;;;;;;11.30;4.82;;;16.20;99.90;;;;;;5053386;28;20029;-69
2023/08/17 01:58:27;;;;;;;8.93;3.50;;;16.40;99.90;;;;;;5035052;28;20079;-69
2023/08/17 02:00:53;;;;;;;13.63;4.00;;;16.30;99.90;;;;;;5053134;28;20083;-69
2023/08/17 02:03:18;;;;;;;13.52;4.43;;;16.20;99.90;;;;;;5053154;28;20033;-69
2023/08/17 02:05:47;;;;;;;7.30;3.83;;;16.00;99.90;;;;;;5052841;28;20111;-69
2023/08/17 02:08:13;;;;;;;10.65;3.78;;;16.30;99.90;;;;;;5052938;28;20043;-69
2023/08/17 02:10:38;;;;;;;12.10;5.05;;;16.10;99.90;;;;;;5052918;28;20407;-69
2023/08/17 02:13:04;;;;;;;14.95;5.95;;;16.00;99.90;;;;;;5035253;28;20033;-69
2023/08/17 02:15:30;;;;;;;11.80;5.32;;;16.10;99.90;;;;;;5052898;28;20068;-69
2023/08/17 02:17:59;;;;;;;9.70;4.07;;;16.10;99.90;;;;;;5034733;28;20408;-69
2023/08/17 02:20:25;;;;;;;6.65;3.65;;;15.90;99.90;;;;;;5052677;28;20090;-69
2023/08/17 02:22:50;;;;;;;5.30;2.67;;;15.80;99.90;;;;;;5035211;28;20447;-69
2023/08/17 02:25:16;;;;;;;4.75;2.33;;;16.00;99.90;;;;;;5052821;28;20443;-70
2023/08/17 02:27:41;;;;;;;7.45;2.78;;;16.00;99.90;;;;;;5034678;28;20028;-69
2023/08/17 02:30:07;;;;;;;6.10;2.42;;;15.80;99.90;;;;;;5034733;28;20496;-69
2023/08/17 02:32:33;;;;;;;7.35;2.85;;;15.80;99.90;;;;;;5018236;28;20045;-69
2023/08/17 02:34:59;;;;;;;10.32;4.00;;;16.00;99.90;;;;;;5034459;28;20071;-69
2023/08/17 02:37:24;;;;;;;13.80;4.95;;;16.00;99.90;;;;;;5034443;28;20717;-69
2023/08/17 02:39:50;;;;;;;10.02;4.63;;;15.90;99.90;;;;;;5052387;28;20045;-69
2023/08/17 02:42:15;;;;;;;12.50;5.25;;;16.20;99.90;;;;;;5052518;28;20043;-69
2023/08/17 02:44:41;;;;;;;12.13;5.88;;;15.90;99.90;;;;;;5052445;28;20116;-69
2023/08/17 02:47:06;;;;;;;15.60;5.65;;;15.90;99.90;;;;;;5052188;28;20435;-69
2023/08/17 02:49:32;;;;;;;12.10;5.10;;;16.10;99.90;;;;;;5052095;28;20386;-69
2023/08/17 02:51:58;;;;;;;10.38;4.65;;;16.20;99.90;;;;;;5052376;28;20051;-69
2023/08/17 02:54:23;;;;;;;10.60;4.63;;;16.20;99.90;;;;;;5052391;28;20393;-69
2023/08/17 02:56:49;;;;;;;7.57;3.80;;;16.00;99.90;;;;;;5052083;28;20044;-69
2023/08/17 02:59:14;;;;;;;11.13;4.10;;;15.90;99.90;;;;;;5034061;28;20047;-69
2023/08/17 03:01:40;;;;;;;9.73;3.88;;;16.20;99.90;;;;;;5052028;28;20037;-69
2023/08/17 03:04:05;;;;;;;7.45;3.35;;;16.00;99.90;;;;;;5033994;28;20041;-69
2023/08/17 03:06:31;;;;;;;6.30;2.92;;;16.10;99.90;;;;;;5051775;28;20044;-69
2023/08/17 03:08:56;;;;;;;6.05;2.45;;;16.10;99.90;;;;;;5051843;28;20067;-69
2023/08/17 03:11:22;;;;;;;5.95;2.35;;;16.10;99.90;;;;;;5034069;28;20519;-69
2023/08/17 03:13:48;;;;;;;5.68;2.70;;;16.00;99.90;;;;;;5051889;28;20449;-69
2023/08/17 03:16:15;;;;;;;5.07;2.45;;;15.90;99.90;;;;;;5033853;28;20595;-69
2023/08/17 03:18:41;;;;;;;10.15;3.92;;;16.20;99.90;;;;;;5051408;28;20037;-69
2023/08/17 03:21:06;;;;;;;7.00;4.00;;;16.00;99.90;;;;;;5051719;28;20106;-69
2023/08/17 03:23:32;;;;;;;6.38;3.25;;;15.90;99.90;;;;;;5033464;28;20037;-69
2023/08/17 03:25:58;;;;;;;5.45;2.80;;;15.90;99.90;;;;;;5051557;28;20033;-69
2023/08/17 03:28:25;;;;;;;6.90;3.03;;;16.20;99.90;;;;;;5051452;28;20044;-69
2023/08/17 03:30:55;;;;;;;10.55;3.45;;;16.10;99.90;;;;;;5033957;28;20466;-69
2023/08/17 03:33:20;;;;;;;5.15;3.13;;;15.90;99.90;;;;;;5051511;28;20043;-69
2023/08/17 03:35:46;;;;;;;9.52;3.92;;;16.00;99.90;;;;;;5051248;28;20124;-69
2023/08/17 03:38:11;;;;;;;9.75;3.97;;;16.10;99.90;;;;;;5033352;28;20036;-69
2023/08/17 03:40:37;;;;;;;12.73;3.65;;;16.10;99.90;;;;;;5033740;28;20033;-69
2023/08/17 03:43:03;;;;;;;7.55;4.35;;;15.80;99.90;;;;;;5051555;28;20041;-69
2023/08/17 03:45:30;;;;;;;7.68;3.45;;;15.80;99.90;;;;;;5051405;28;20048;-69
2023/08/17 03:47:56;;;;;;;6.30;3.38;;;16.00;99.90;;;;;;5033346;28;20037;-69
2023/08/17 03:50:21;;;;;;;5.38;2.70;;;15.90;99.90;;;;;;5051369;28;20052;-69
2023/08/17 03:52:47;;;;;;;7.07;2.80;;;16.10;99.90;;;;;;5051550;28;20029;-69
2023/08/17 03:55:12;;;;;;;7.05;3.85;;;16.20;99.90;;;;;;5051404;28;20102;-69
2023/08/17 03:57:38;;;;;;;10.45;3.22;;;15.80;99.90;;;;;;5051226;28;20163;-69
2023/08/17 04:00:05;;;;;;;6.85;2.70;;;16.00;99.90;;;;;;5051312;28;20067;-69
2023/08/17 04:02:31;;;;;;;4.20;2.75;;;15.70;99.90;;;;;;5051182;28;20041;-69
2023/08/17 04:04:57;;;;;;;5.53;3.10;;;16.00;99.90;;;;;;5033342;28;20043;-69
2023/08/17 04:07:23;;;;;;;6.95;3.30;;;15.70;99.90;;;;;;5051159;28;20073;-69
2023/08/17 04:09:48;;;;;;;9.02;3.75;;;15.70;99.90;;;;;;5051227;28;20041;-69
2023/08/17 04:12:14;;;;;;;8.02;3.33;;;16.00;99.90;;;;;;5051281;28;20090;-69
2023/08/17 04:14:40;;;;;;;6.65;3.25;;;16.00;99.90;;;;;;5051204;28;20041;-69
2023/08/17 04:17:06;;;;;;;14.60;3.55;;;15.80;99.90;;;;;;5050953;28;20041;-69
2023/08/17 04:19:31;;;;;;;6.43;2.53;;;15.90;99.90;;;;;;5051014;28;20087;-69
2023/08/17 04:21:58;;;;;;;6.43;2.78;;;15.90;99.90;;;;;;5051236;28;20045;-69
2023/08/17 04:24:24;;;;;;;6.50;3.30;;;15.90;99.90;;;;;;5051168;28;20076;-69
2023/08/17 04:26:49;;;;;;;7.97;2.17;;;15.90;99.90;;;;;;5032983;28;20069;-69
2023/08/17 04:29:15;;;;;;;6.85;2.45;;;15.70;99.90;;;;;;5050760;28;20041;-69
2023/08/17 04:31:40;;;;;;;5.50;2.33;;;15.90;99.90;;;;;;5033483;28;20516;-69
2023/08/17 04:34:06;;;;;;;7.68;2.83;;;15.80;99.90;;;;;;5051636;28;20516;-69
2023/08/17 04:36:32;;;;;;;5.05;2.92;;;15.80;99.90;;;;;;5089802;22;20044;-75
2023/08/17 04:38:58;;;;;;;5.05;2.88;;;15.80;99.90;;;;;;5073482;28;20044;-72
2023/08/17 04:41:23;;;;;;;6.68;2.97;;;15.70;99.90;;;;;;5056751;28;20059;-72
2023/08/17 04:43:49;;;;;;;8.65;3.45;;;15.80;99.90;;;;;;5056696;28;20044;-72
2023/08/17 04:46:14;;;;;;;11.00;4.20;;;15.70;99.90;;;;;;5056519;28;20039;-72
2023/08/17 04:48:40;;;;;;;9.68;4.50;;;16.00;99.90;;;;;;5056617;28;20048;-73
2023/08/17 04:51:06;;;;;;;10.15;5.28;;;15.70;99.90;;;;;;5074573;28;20523;-72
2023/08/17 04:53:31;;;;;;;15.82;5.47;;;15.60;99.90;;;;;;5074723;28;20094;-72
2023/08/17 04:55:58;;;;;;;15.52;5.38;;;15.70;99.90;;;;;;5056522;28;20507;-72
2023/08/17 04:58:24;;;;;;;12.25;4.72;;;15.60;99.90;;;;;;5055965;28;20048;-71
2023/08/17 05:00:50;;;;;;;11.20;5.03;;;15.80;99.90;;;;;;5056446;28;20041;-72
2023/08/17 05:03:16;;;;;;;12.27;4.60;;;15.70;99.90;;;;;;5074438;28;20029;-71
2023/08/17 05:05:41;;;;;;;13.57;5.00;;;15.90;99.90;;;;;;5074469;28;20041;-71
2023/08/17 05:08:07;;;;;;;13.75;5.47;;;15.60;99.90;;;;;;5056466;28;20033;-72
2023/08/17 05:10:32;;;;;;;10.88;4.78;;;15.60;99.90;;;;;;5056364;28;20565;-72
2023/08/17 05:12:58;;;;;;;12.35;4.65;;;15.80;99.90;;;;;;5055917;28;20032;-71
2023/08/17 05:15:24;;;;;;;9.57;4.57;;;15.70;99.90;;;;;;5056172;28;20071;-72
2023/08/17 05:17:49;;;;;;;10.57;4.45;;;15.70;99.90;;;;;;5056088;28;20550;-71
2023/08/17 05:20:15;;;;;;;6.47;3.90;;;15.70;99.90;;;;;;5056149;28;20046;-71
2023/08/17 05:22:41;;;;;;;10.52;4.25;;;15.70;99.90;;;;;;5056094;28;20117;-72
2023/08/17 05:25:07;;;;;;;6.68;3.50;;;15.80;99.90;;;;;;5073929;28;20028;-71
2023/08/17 05:27:32;;;;;;;9.13;4.15;;;15.90;99.90;;;;;;5073443;28;20037;-72
2023/08/17 05:29:58;;;;;;;7.00;3.75;;;16.10;99.90;;;;;;5074003;28;20041;-72
2023/08/17 05:32:23;;;;;;;10.65;3.80;;;16.00;99.90;;;;;;5073941;28;20051;-72
2023/08/17 05:34:49;;;;;;;11.18;3.55;;;16.20;99.90;;;;;;5073825;28;20036;-76
2023/08/17 05:37:15;;;;;;;7.50;3.55;;;16.10;99.90;;;;;;5055696;28;20165;-74
2023/08/17 05:39:41;;;;;;;9.80;4.43;;;16.70;99.90;;;;;;5055497;28;20041;-71
2023/08/17 05:42:06;;;;;;;8.15;3.97;;;16.50;99.90;;;;;;5073435;28;20123;-71
2023/08/17 05:44:32;;;;;;;9.32;4.15;;;17.00;99.90;;;;;;5055889;28;20040;-71
2023/08/17 05:46:58;;;;;;;10.57;3.80;;;17.30;99.90;;;;;;5072468;28;20115;-71
2023/08/17 05:49:24;;;;;;;7.47;3.40;;;17.10;99.90;;;;;;5073420;28;20074;-71
2023/08/17 05:51:49;;;;;;;6.82;3.33;;;17.40;99.90;;;;;;5073418;28;20129;-71
2023/08/17 05:54:15;;;;;;;6.97;3.70;;;17.60;99.90;;;;;;5055580;28;20414;-71
2023/08/17 05:56:46;;;;;;;6.78;4.35;;;17.60;99.90;;;;;;5072992;28;20066;-71
2023/08/17 05:59:12;;;;;;;10.88;3.65;;;17.70;99.90;;;;;;5073070;28;20055;-71
2023/08/17 06:01:38;;;;;;;7.03;3.35;;;17.70;99.90;;;;;;5073239;28;20036;-71
2023/08/17 06:04:05;;;;;;;8.50;3.70;;;18.00;99.90;;;;;;5073200;28;20102;-71
2023/08/17 06:06:30;;;;;;;7.72;3.40;;;18.10;99.90;;;;;;5072995;28;20119;-71
2023/08/17 06:08:56;;;;;;;7.38;2.65;;;18.30;99.90;;;;;;5072590;28;20124;-71
2023/08/17 06:11:23;;;;;;;4.28;2.45;;;18.30;99.90;;;;;;5055014;28;20036;-72
2023/08/17 06:13:48;;;;;;;6.53;3.13;;;18.40;99.90;;;;;;5055186;28;20412;-71
2023/08/17 06:16:14;;;;;;;7.38;2.42;;;18.30;99.90;;;;;;5054809;28;20044;-71
2023/08/17 06:18:39;;;;;;;9.05;2.42;;;18.10;99.90;;;;;;5054776;28;20119;-72
2023/08/17 06:21:05;;;;;;;8.18;3.42;;;18.20;99.90;;;;;;5054904;28;20036;-71
2023/08/17 06:23:30;;;;;;;6.05;2.35;;;18.00;99.90;;;;;;5072819;28;20063;-71
2023/08/17 06:25:58;;;;;;;5.18;2.20;;;17.80;99.90;;;;;;5072517;28;20040;-71
2023/08/17 06:28:24;;;;;;;6.88;2.33;;;17.80;99.90;;;;;;5054557;28;20056;-71
2023/08/17 06:30:56;;;;;;;6.53;1.80;;;17.70;99.90;;;;;;5038317;28;20053;-71
2023/08/17 06:33:22;;;;;;;2.88;1.73;;;17.50;99.90;;;;;;5072583;28;20032;-71
2023/08/17 06:35:49;;;;;;;7.72;1.83;;;17.40;99.90;;;;;;5054404;28;20047;-71
2023/08/17 06:38:14;;;;;;;6.35;1.85;;;17.40;99.90;;;;;;5054328;28;20050;-71
2023/08/17 06:40:40;;;;;;;8.07;2.20;;;17.50;99.90;;;;;;5054488;28;20550;-72
2023/08/17 06:43:06;;;;;;;6.57;2.20;;;17.40;99.90;;;;;;5072561;28;20083;-71
2023/08/17 06:45:32;;;;;;;5.10;1.80;;;17.30;99.90;;;;;;5054266;28;20044;-71
2023/08/17 06:47:58;;;;;;;7.32;1.77;;;17.40;99.90;;;;;;5053996;28;20131;-71
2023/08/17 06:50:24;;;;;;;4.97;1.75;;;17.30;99.90;;;;;;5054276;28;20072;-71
2023/08/17 06:52:49;;;;;;;4.53;1.70;;;17.50;99.90;;;;;;5054393;28;20083;-71
2023/08/17 06:55:15;;;;;;;4.00;1.73;;;17.50;99.90;;;;;;5054074;28;20040;-71
2023/08/17 06:57:41;;;;;;;12.43;2.83;;;17.50;99.90;;;;;;5037218;28;20052;-71
2023/08/17 07:00:07;;;;;;;4.70;2.20;;;17.50;99.90;;;;;;5054015;28;20420;-71
2023/08/17 07:02:34;;;;;;;7.38;2.45;;;17.20;99.90;;;;;;5053981;28;20036;-71
2023/08/17 07:05:00;;;;;;;5.75;1.88;;;17.40;99.90;;;;;;5054062;28;20045;-71
2023/08/17 07:07:25;;;;;;;6.60;1.60;;;17.30;99.90;;;;;;5053647;28;20036;-70
2023/08/17 07:09:51;;;;;;;4.65;1.63;;;17.30;99.90;;;;;;5071736;28;20044;-73
2023/08/17 07:12:17;;;;;;;4.75;1.75;;;17.40;99.90;;;;;;5053950;28;20492;-71
2023/08/17 07:14:42;;;;;;;7.28;2.60;;;17.20;99.90;;;;;;5053871;28;20097;-71
2023/08/17 07:17:08;;;;;;;4.70;1.88;;;17.20;99.90;;;;;;5037432;28;20129;-71
2023/08/17 07:19:33;;;;;;;4.45;1.33;;;17.30;99.90;;;;;;5071710;28;20048;-74
2023/08/17 07:21:59;;;;;;;6.60;1.70;;;17.40;99.90;;;;;;5053826;28;20558;-71
2023/08/17 07:24:24;;;;;;;3.45;1.63;;;17.50;99.90;;;;;;5071830;28;20041;-71
2023/08/17 07:26:53;;;;;;;7.82;1.58;;;17.20;99.90;;;;;;5053820;28;20032;-74
2023/08/17 07:29:18;;;;;;;4.75;1.30;;;17.40;99.90;;;;;;5053536;28;20044;-72
2023/08/17 07:31:44;;;;;;;6.85;1.52;;;17.40;99.90;;;;;;5070578;28;20041;-72
2023/08/17 07:34:10;;;;;;;3.70;1.40;;;17.50;99.90;;;;;;5053698;28;20123;-72
2023/08/17 07:36:36;;;;;;;2.50;1.13;;;17.40;99.90;;;;;;5053590;28;20040;-72
2023/08/17 07:39:01;;;;;;;4.53;1.27;;;17.40;99.90;;;;;;5053309;28;20119;-72
2023/08/17 07:41:27;;;;;;;1.13;0.77;;;17.50;99.90;;;;;;5053915;28;20120;-72
2023/08/17 07:43:52;;;;;;;3.53;1.20;;;17.50;99.90;;;;;;5053570;28;20033;-71
2023/08/17 07:46:18;;;;;;;3.78;1.13;;;17.40;99.90;;;;;;5053778;28;20047;-75
2023/08/17 07:48:44;;;;;;;4.40;1.20;;;17.50;99.90;;;;;;5053471;28;20049;-71
2023/08/17 07:51:09;;;;;;;3.55;1.00;;;17.50;99.90;;;;;;5071457;28;20115;-72
2023/08/17 07:53:35;;;;;;;4.03;0.98;;;17.50;99.90;;;;;;5071507;28;20079;-71
2023/08/17 07:56:01;;;;;;;3.63;1.15;;;17.40;99.90;;;;;;5053402;28;20107;-71
2023/08/17 07:58:26;;;;;;;4.60;0.93;;;17.60;99.90;;;;;;5071171;28;20076;-71
2023/08/17 08:00:52;;;;;;;4.63;1.63;;;17.50;99.90;;;;;;5071474;28;20436;-71
2023/08/17 08:03:18;;;;;;;3.13;1.08;;;17.60;99.90;;;;;;5071383;28;20048;-71
2023/08/17 08:05:43;;;;;;;3.05;1.30;;;17.60;99.90;;;;;;5053323;28;20040;-72
2023/08/17 08:08:09;;;;;;;3.80;1.63;;;17.60;99.90;;;;;;5071083;28;20043;-71
2023/08/17 08:10:34;;;;;;;6.30;1.42;;;17.60;99.90;;;;;;5074189;28;20041;-70
2023/08/17 08:13:00;;;;;;;3.65;1.02;;;17.60;99.90;;;;;;5057507;28;20032;-71
2023/08/17 08:15:25;;;;;;;3.28;1.20;;;17.60;99.90;;;;;;5075081;28;20036;-72
2023/08/17 08:17:51;;;;;;;3.88;1.13;;;17.70;99.90;;;;;;5056956;28;20051;-71
2023/08/17 08:20:17;;;;;;;2.78;1.83;;;17.70;99.90;;;;;;5056997;28;20051;-70
2023/08/17 08:22:43;;;;;;;4.30;1.17;;;17.70;99.90;;;;;;5074772;28;20495;-71
2023/08/17 08:25:08;;;;;;;3.38;1.08;;;17.70;99.90;;;;;;5056237;28;20094;-71
2023/08/17 08:27:34;;;;;;;4.38;1.20;;;17.60;99.90;;;;;;5074363;28;20063;-71
2023/08/17 08:29:59;;;;;;;2.92;1.15;;;17.70;99.90;;;;;;5056570;28;20123;-71
2023/08/17 08:32:25;;;;;;;4.57;1.80;;;17.90;99.90;;;;;;5056300;28;20036;-70
2023/08/17 08:34:51;;;;;;;4.55;1.50;;;17.80;99.90;;;;;;5074230;28;20044;-70
2023/08/17 08:37:16;;;;;;;2.47;1.20;;;17.80;99.90;;;;;;5074475;28;20047;-70
2023/08/17 08:39:50;;;;;;;4.95;1.35;;;17.90;99.90;;;;;;5074112;28;20040;-70
2023/08/17 08:42:17;;;;;;;2.38;1.00;;;18.10;99.90;;;;;;5074188;28;20443;-70
2023/08/17 08:44:42;;;;;;;2.95;1.20;;;18.30;99.90;;;;;;5039539;28;20086;-70
2023/08/17 08:47:08;;;;;;;3.45;1.08;;;18.40;99.90;;;;;;5074274;28;20041;-71
2023/08/17 08:49:43;;;;;;;3.50;1.10;;;18.60;99.90;;;;;;5056367;28;20119;-71
2023/08/17 08:52:16;;;;;;;3.47;0.90;;;18.60;99.90;;;;;;5074776;28;20040;-71
2023/08/17 08:54:46;;;;;;;3.88;0.98;;;18.90;99.90;;;;;;5056609;28;20037;-71
2023/08/17 08:57:16;;;;;;;5.97;1.55;;;18.90;99.90;;;;;;5074276;28;20511;-71
2023/08/17 08:59:45;;;;;;;3.85;1.08;;;18.70;99.90;;;;;;5039478;28;20032;-71
2023/08/17 09:02:15;;;;;;;5.22;1.30;;;18.70;99.90;;;;;;5073816;28;20135;-71
2023/08/17 09:04:45;;;;;;;2.72;1.10;;;18.70;99.90;;;;;;5074047;28;20032;-71
2023/08/17 09:07:13;;;;;;;2.83;0.80;;;18.70;99.90;;;;;;5073805;28;20036;-71
2023/08/17 09:09:39;;;;;;;4.45;0.98;;;18.80;99.90;;;;;;5074166;28;20043;-71
2023/08/17 09:12:11;;;;;;;2.47;1.13;;;18.90;99.90;;;;;;5056212;28;20040;-71
2023/08/17 09:14:37;;;;;;;3.92;1.42;;;18.70;99.90;;;;;;5056830;28;20120;-72
2023/08/17 09:17:03;;;;;;;3.80;0.95;;;18.80;99.90;;;;;;5083821;28;20032;-70
2023/08/17 09:19:32;;;;;;;3.95;0.80;;;19.00;99.90;;;;;;5075619;28;20040;-71
2023/08/17 09:21:57;;;;;;;4.55;1.00;;;19.00;99.90;;;;;;5079141;28;20043;-70
2023/08/17 09:24:23;;;;;;;3.10;1.17;;;19.20;99.90;;;;;;5073963;28;20036;-70
2023/08/17 09:26:50;;;;;;;6.60;1.30;;;19.10;99.90;;;;;;5055768;28;20405;-70
2023/08/17 09:29:19;;;;;;;4.80;1.17;;;19.10;99.90;;;;;;5073671;28;20047;-70
2023/08/17 09:31:46;;;;;;;2.70;1.20;;;19.20;99.90;;;;;;5074107;28;20048;-72
2023/08/17 09:34:14;;;;;;;2.58;1.13;;;19.10;99.90;;;;;;5039226;28;20085;-71
2023/08/17 09:36:40;;;;;;;3.10;1.17;;;19.20;99.90;;;;;;5055578;28;20040;-68
2023/08/17 09:39:06;;;;;;;5.03;1.38;;;19.00;99.90;;;;;;5073391;28;20032;-70
2023/08/17 09:41:39;;;;;;;4.72;1.30;;;19.20;99.90;;;;;;5073547;28;20044;-69
2023/08/17 09:44:05;;;;;;;;;;;19.10;99.90;;;;;;5074270;28;20047;-70
2023/08/17 09:46:31;;;;;;;7.18;1.55;;;19.00;99.90;;;;;;5055638;28;20351;-69
2023/08/17 09:48:57;;;;;;;3.95;1.27;;;19.10;99.90;;;;;;5055526;28;20049;-70
2023/08/17 09:51:23;;;;;;;4.55;0.98;;;19.20;99.90;;;;;;5055554;28;20496;-70
2023/08/17 09:53:55;;;;;;;3.38;1.20;;;19.30;99.90;;;;;;5072670;28;20032;-70
2023/08/17 09:56:23;;;;;;;4.97;1.30;;;19.20;99.90;;;;;;5070474;28;20119;-70
2023/08/17 09:58:49;;;;;;;4.93;1.30;;;19.30;99.90;;;;;;5072703;28;20032;-69
2023/08/17 10:01:15;;;;;;;1.83;1.08;;;19.30;99.90;;;;;;5072290;28;20036;-70
2023/08/17 10:03:45;;;;;;;5.13;1.38;;;19.20;99.90;;;;;;5072845;28;20033;-70
2023/08/17 10:06:12;;;;;;;4.35;1.20;;;19.20;99.90;;;;;;5072806;28;20452;-70
2023/08/17 10:08:47;;;;;;;2.75;0.90;;;19.30;99.90;;;;;;5067801;28;20495;-69
2023/08/17 10:11:16;;;;;;;1.77;1.08;;;19.10;99.90;;;;;;5068858;28;20037;-71
2023/08/17 10:13:56;;;;;;;2.35;1.20;;;19.30;99.90;;;;;;5054902;28;20050;-70
2023/08/17 10:16:44;;;;;;;3.30;1.10;;;19.20;99.90;;;;;;5054829;28;20123;-70
2023/08/17 10:19:29;;;;;;;3.90;1.30;;;19.20;99.90;;;;;;5072535;28;20045;-70
2023/08/17 10:22:11;;;;;;;4.85;1.17;;;19.30;99.90;;;;;;5072783;28;20051;-71
2023/08/17 10:24:39;;;;;;;4.75;1.20;;;19.30;99.90;;;;;;5054751;28;20503;-70
2023/08/17 10:27:06;;;;;;;5.18;1.30;;;19.30;99.90;;;;;;5072468;28;20047;-70
2023/08/17 10:29:32;;;;;;;2.28;1.13;;;19.40;99.90;;;;;;5070859;28;20040;-70
2023/08/17 10:32:00;;;;;;;4.45;1.58;;;19.50;99.90;;;;;;5072358;28;20071;-70
2023/08/17 10:34:27;;;;;;;4.05;1.20;;;19.80;99.90;;;;;;5077393;28;20424;-70
2023/08/17 10:36:55;;;;;;;4.63;1.73;;;19.90;99.90;;;;;;5071872;28;20032;-70
2023/08/17 10:39:28;;;;;;;5.00;1.75;;;19.90;99.90;;;;;;5063666;28;20102;-70
2023/08/17 10:41:55;;;;;;;2.38;1.40;;;19.90;99.90;;;;;;5054684;28;20047;-70
2023/08/17 10:44:44;;;;;;;4.35;1.60;;;19.90;99.90;;;;;;5054236;28;20083;-70
2023/08/17 10:47:27;;;;;;;4.43;1.58;;;19.90;99.90;;;;;;5054345;28;20044;-70
2023/08/17 10:50:01;;;;;;;4.93;1.30;;;19.90;99.90;;;;;;5072103;28;20164;-70
2023/08/17 10:52:35;;;;;;;4.68;1.50;;;19.90;99.90;;;;;;5072180;28;20033;-70
2023/08/17 10:55:05;;;;;;;4.20;1.60;;;20.00;99.90;;;;;;5072256;28;20036;-73
2023/08/17 10:57:35;;;;;;;3.80;1.30;;;20.10;99.90;;;;;;5068015;28;20373;-70
2023/08/17 11:00:31;;;;;;;5.10;1.83;;;20.00;99.90;;;;;;5070922;28;20499;-70
2023/08/17 11:03:03;;;;;;;2.35;1.55;;;20.10;99.90;;;;;;5063692;28;20078;-70
2023/08/17 11:05:53;;;;;;;7.47;1.60;;;20.00;99.90;;;;;;5053817;28;20036;-70
2023/08/17 11:08:25;;;;;;;6.88;1.58;;;19.90;99.90;;;;;;5052094;28;20045;-70
2023/08/17 11:11:19;;;;;;;3.10;1.30;;;19.90;99.90;;;;;;5074275;28;20110;-71
2023/08/17 11:13:46;;;;;;;2.47;1.70;;;20.00;99.90;;;;;;5065463;28;20289;-71
2023/08/17 11:16:18;;;;;;;7.78;2.40;;;20.00;99.90;;;;;;5073496;28;20072;-70
2023/08/17 11:18:46;;;;;;;3.70;2.10;;;20.20;99.90;;;;;;5071529;28;20045;-70
2023/08/17 11:21:14;;;;;;;5.53;2.00;;;20.50;99.90;;;;;;5067967;28;20036;-70
2023/08/17 11:23:40;;;;;;;5.10;1.73;;;20.50;99.90;;;;;;5071459;28;20082;-70
2023/08/17 11:26:07;;;;;;;5.03;2.00;;;20.50;99.90;;;;;;5071720;28;20028;-72
2023/08/17 11:28:36;;;;;;;5.70;2.10;;;20.50;99.90;;;;;;5071227;28;20503;-71
2023/08/17 11:31:20;;;;;;;4.20;1.90;;;20.70;99.90;;;;;;5053683;28;20115;-71
2023/08/17 11:33:46;;;;;;;4.45;1.65;;;20.60;99.90;;;;;;5066850;28;20047;-70
2023/08/17 11:36:15;;;;;;;2.80;1.50;;;20.60;99.90;;;;;;5077497;28;20055;-71
2023/08/17 11:38:43;;;;;;;5.22;2.33;;;20.50;99.90;;;;;;5050317;28;20040;-70
2023/08/17 11:41:09;;;;;;;4.80;1.90;;;20.60;99.90;;;;;;5057629;28;20041;-71
2023/08/17 11:43:35;;;;;;;6.88;2.20;;;20.50;99.90;;;;;;5068081;28;20072;-72
2023/08/17 11:46:01;;;;;;;3.45;1.65;;;20.60;99.90;;;;;;5052754;28;20377;-72
2023/08/17 11:48:28;;;;;;;5.60;2.15;;;20.80;99.90;;;;;;5070183;28;20028;-72
2023/08/17 11:50:55;;;;;;;4.05;2.00;;;20.80;99.90;;;;;;5071339;28;20044;-72
2023/08/17 11:53:21;;;;;;;4.80;1.98;;;21.00;99.90;;;;;;5071490;28;20032;-72
2023/08/17 11:55:46;;;;;;;3.60;2.30;;;21.00;99.90;;;;;;5071500;28;20119;-72
2023/08/17 11:58:12;;;;;;;4.32;2.25;;;20.90;99.90;;;;;;5071233;28;20072;-72
2023/08/17 12:00:44;;;;;;;4.18;1.85;;;20.80;99.90;;;;;;5071316;28;20037;-71
2023/08/17 12:03:16;;;;;;;3.47;1.53;;;20.90;99.90;;;;;;5036788;28;20492;-72
2023/08/17 12:05:43;;;;;;;3.63;1.83;;;21.00;99.90;;;;;;5066755;28;20336;-74
2023/08/17 12:08:09;;;;;;;3.33;1.75;;;21.20;99.90;;;;;;5052172;28;20132;-74
2023/08/17 12:10:37;;;;;;;6.30;2.00;;;21.60;99.90;;;;;;5070096;28;20547;-74
2023/08/17 12:13:03;;;;;;;3.88;1.80;;;21.40;99.90;;;;;;5069210;28;20381;-74
2023/08/17 12:15:33;;;;;;;4.32;2.08;;;21.50;99.90;;;;;;5068584;28;20051;-73
2023/08/17 12:18:00;;;;;;;4.00;1.70;;;21.60;99.90;;;;;;5070805;28;20036;-75
2023/08/17 12:20:26;;;;;;;4.63;1.90;;;21.60;99.90;;;;;;5052970;28;20045;-74
2023/08/17 12:22:51;;;;;;;2.85;1.95;;;21.60;99.90;;;;;;5071183;28;20040;-74
2023/08/17 12:25:20;;;;;;;4.15;2.22;;;21.40;99.90;;;;;;5071222;28;20032;-75
2023/08/17 12:27:47;;;;;;;5.53;2.95;;;21.30;99.90;;;;;;5052815;28;20040;-73
2023/08/17 12:30:23;;;;;;;6.30;1.80;;;21.50;99.90;;;;;;5070827;28;20047;-73
2023/08/17 12:32:49;;;;;;;3.15;1.88;;;21.40;99.90;;;;;;5051256;28;20033;-73
2023/08/17 12:35:15;;;;;;;4.78;2.08;;;21.40;99.90;;;;;;5050865;28;20599;-74
2023/08/17 12:37:40;;;;;;;3.65;1.70;;;21.60;99.90;;;;;;5050716;28;20511;-73
2023/08/17 12:40:07;;;;;;;6.00;2.38;;;21.50;99.90;;;;;;5051208;28;20045;-73
2023/08/17 12:42:33;;;;;;;5.85;2.40;;;21.50;99.90;;;;;;5050850;28;20531;-73
2023/08/17 12:44:59;;;;;;;4.68;2.08;;;21.50;99.90;;;;;;5016761;28;20061;-75
2023/08/17 12:47:24;;;;;;;5.13;2.10;;;21.30;99.90;;;;;;5032980;28;20037;-75